createdAt,value
2019-02-22T00:00:28.032Z,21.01
2019-02-22T00:01:27.870Z,20.93
2019-02-22T00:02:27.876Z,21.02
2019-02-22T00:03:27.877Z,20.99
2019-02-22T00:04:27.883Z,21.01
2019-02-22T00:05:27.888Z,20.96
2019-02-22T00:06:27.895Z,20.95
2019-02-22T00:07:27.898Z,20.96
2019-02-22T00:08:27.905Z,21.02
2019-02-22T00:09:27.908Z,21.04
2019-02-22T00:10:27.915Z,21.02
2019-02-22T00:11:27.918Z,20.98
2019-02-22T00:12:27.924Z,20.99
2019-02-22T00:13:27.930Z,21.05
2019-02-22T00:14:27.933Z,21.05
2019-02-22T00:15:27.939Z,21.01
2019-02-22T00:16:27.943Z,20.96
2019-02-22T00:17:27.959Z,21.08
2019-02-22T00:18:27.954Z,21.04
2019-02-22T00:19:27.958Z,21.01
2019-02-22T00:20:27.965Z,21.02
2019-02-22T00:21:27.970Z,20.91
2019-02-22T00:22:27.971Z,20.93
2019-02-22T00:23:27.978Z,20.99
2019-02-22T00:24:27.983Z,21.01
2019-02-22T00:25:28.037Z,20.96
2019-02-22T00:26:27.992Z,21.01
2019-02-22T00:27:27.998Z,20.99
2019-02-22T00:28:28.012Z,20.99
2019-02-22T00:29:28.007Z,21.04
2019-02-22T00:30:28.012Z,21.06
2019-02-22T00:31:28.017Z,20.89
2019-02-22T00:32:28.024Z,20.99
2019-02-22T00:33:28.029Z,20.99
2019-02-22T00:34:28.052Z,21.05
2019-02-22T00:35:28.085Z,21.01
2019-02-22T00:36:28.063Z,20.90
2019-02-22T00:37:28.078Z,21.05
2019-02-22T00:38:28.058Z,20.91
2019-02-22T00:39:28.055Z,20.98
2019-02-22T00:40:28.063Z,20.95
2019-02-22T00:41:28.066Z,20.93
2019-02-22T00:42:28.072Z,21.01
2019-02-22T00:43:28.078Z,21.01
2019-02-22T00:44:28.081Z,20.98
2019-02-22T00:45:28.085Z,20.89
2019-02-22T00:46:28.097Z,21.01
2019-02-22T00:47:28.172Z,21.01
2019-02-22T00:48:28.100Z,21.04
2019-02-22T00:49:28.108Z,21.02
2019-02-22T00:50:28.144Z,21.05
2019-02-22T00:51:28.115Z,20.99
2019-02-22T00:52:28.122Z,21.05
2019-02-22T00:53:28.124Z,20.99
2019-02-22T00:54:28.132Z,21.04
2019-02-22T00:55:28.136Z,21.01
2019-02-22T00:56:28.140Z,20.99
2019-02-22T00:57:28.144Z,20.87
2019-02-22T00:58:28.148Z,21.05
2019-02-22T00:59:28.154Z,21.01
2019-02-22T01:00:28.161Z,21.01
2019-02-22T01:01:28.162Z,21.05
2019-02-22T01:02:28.168Z,20.91
2019-02-22T01:03:28.196Z,21.06
2019-02-22T01:04:28.182Z,21.02
2019-02-22T01:05:28.183Z,21.02
2019-02-22T01:06:28.189Z,20.99
2019-02-22T01:07:28.194Z,20.93
2019-02-22T01:08:28.199Z,20.98
2019-02-22T01:09:28.203Z,20.98
2019-02-22T01:10:31.358Z,20.98
2019-02-22T01:11:28.212Z,21.04
2019-02-22T01:12:28.218Z,20.89
2019-02-22T01:13:28.221Z,21.01
2019-02-22T01:14:28.235Z,21.01
2019-02-22T01:15:28.234Z,20.99
2019-02-22T01:16:28.239Z,20.93
2019-02-22T01:17:28.242Z,21.06
2019-02-22T01:18:28.266Z,21.04
2019-02-22T01:19:28.255Z,21.01
2019-02-22T01:20:28.258Z,20.99
2019-02-22T01:21:28.260Z,20.96
2019-02-22T01:22:28.268Z,20.99
2019-02-22T01:23:28.272Z,21.01
2019-02-22T01:24:28.276Z,21.04
2019-02-22T01:25:28.280Z,20.86
2019-02-22T01:26:28.286Z,20.95
2019-02-22T01:27:28.291Z,20.91
2019-02-22T01:28:28.297Z,20.93
2019-02-22T01:29:28.301Z,20.96
2019-02-22T01:30:28.305Z,20.96
2019-02-22T01:31:28.316Z,20.96
2019-02-22T01:32:28.318Z,20.90
2019-02-22T01:33:28.321Z,20.98
2019-02-22T01:34:28.325Z,20.95
2019-02-22T01:35:28.330Z,20.87
2019-02-22T01:36:28.336Z,20.98
2019-02-22T01:37:28.339Z,20.91
2019-02-22T01:38:28.345Z,20.89
2019-02-22T01:39:28.351Z,20.99
2019-02-22T01:40:28.354Z,21.01
2019-02-22T01:41:28.359Z,20.99
2019-02-22T01:42:28.364Z,21.04
2019-02-22T01:43:28.368Z,20.95
2019-02-22T01:44:28.375Z,20.98
2019-02-22T01:45:28.379Z,20.93
2019-02-22T01:46:28.384Z,20.87
2019-02-22T01:47:28.421Z,21.01
2019-02-22T01:48:28.399Z,20.95
2019-02-22T01:49:28.399Z,20.98
2019-02-22T01:50:28.404Z,20.91
2019-02-22T01:51:28.410Z,20.99
2019-02-22T01:52:28.415Z,20.96
2019-02-22T01:53:28.418Z,20.87
2019-02-22T01:54:28.423Z,21.02
2019-02-22T01:55:28.430Z,20.96
2019-02-22T01:56:28.433Z,20.99
2019-02-22T01:57:28.438Z,20.91
2019-02-22T01:58:28.441Z,20.91
2019-02-22T01:59:28.453Z,21.02
2019-02-22T02:00:28.454Z,20.98
2019-02-22T02:01:28.456Z,20.93
2019-02-22T02:02:28.465Z,20.98
2019-02-22T02:03:28.466Z,20.89
2019-02-22T02:04:28.472Z,20.91
2019-02-22T02:05:28.476Z,21.01
2019-02-22T02:06:28.484Z,20.99
2019-02-22T02:07:28.487Z,20.90
2019-02-22T02:08:28.491Z,20.87
2019-02-22T02:09:28.495Z,20.99
2019-02-22T02:10:28.501Z,20.90
2019-02-22T02:11:28.505Z,21.04
2019-02-22T02:12:28.513Z,21.04
2019-02-22T02:13:28.515Z,20.95
2019-02-22T02:14:28.521Z,20.91
2019-02-22T02:15:28.525Z,20.93
2019-02-22T02:16:28.531Z,20.90
2019-02-22T02:17:28.536Z,20.90
2019-02-22T02:18:28.541Z,20.83
2019-02-22T02:19:28.546Z,20.89
2019-02-22T02:20:28.569Z,20.93
2019-02-22T02:21:28.555Z,20.91
2019-02-22T02:22:28.561Z,20.87
2019-02-22T02:23:28.564Z,20.93
2019-02-22T02:24:28.568Z,20.95
2019-02-22T02:25:28.573Z,20.98
2019-02-22T02:26:28.583Z,20.93
2019-02-22T02:27:28.583Z,20.91
2019-02-22T02:28:28.589Z,20.98
2019-02-22T02:29:28.594Z,20.91
2019-02-22T02:30:28.600Z,20.91
2019-02-22T02:31:28.608Z,20.87
2019-02-22T02:32:28.609Z,20.99
2019-02-22T02:33:28.618Z,20.93
2019-02-22T02:34:28.634Z,20.93
2019-02-22T02:35:28.622Z,20.96
2019-02-22T02:36:28.627Z,20.96
2019-02-22T02:37:28.632Z,20.95
2019-02-22T02:38:28.654Z,20.90
2019-02-22T02:39:28.642Z,20.93
2019-02-22T02:40:28.647Z,20.93
2019-02-22T02:41:28.652Z,20.89
2019-02-22T02:42:28.656Z,20.93
2019-02-22T02:43:28.660Z,20.95
2019-02-22T02:44:28.666Z,20.91
2019-02-22T02:45:28.671Z,20.93
2019-02-22T02:46:28.675Z,20.98
2019-02-22T02:47:28.687Z,20.96
2019-02-22T02:48:28.686Z,20.93
2019-02-22T02:49:28.691Z,20.91
2019-02-22T02:50:28.701Z,20.91
2019-02-22T02:51:28.700Z,20.91
2019-02-22T02:52:28.705Z,21.01
2019-02-22T02:53:28.712Z,20.91
2019-02-22T02:54:28.714Z,21.05
2019-02-22T02:55:28.718Z,21.04
2019-02-22T02:56:28.727Z,20.96
2019-02-22T02:57:28.729Z,20.96
2019-02-22T02:58:28.742Z,20.86
2019-02-22T02:59:28.740Z,20.87
2019-02-22T03:00:28.779Z,21.02
2019-02-22T03:01:28.750Z,20.96
2019-02-22T03:02:28.753Z,21.01
2019-02-22T03:03:28.758Z,20.89
2019-02-22T03:04:28.763Z,20.93
2019-02-22T03:05:28.767Z,20.99
2019-02-22T03:06:28.771Z,20.90
2019-02-22T03:07:28.780Z,20.98
2019-02-22T03:08:28.783Z,20.91
2019-02-22T03:09:28.790Z,20.95
2019-02-22T03:10:31.430Z,20.90
2019-02-22T03:11:28.798Z,20.90
2019-02-22T03:12:28.802Z,20.89
2019-02-22T03:13:28.806Z,20.83
2019-02-22T03:14:28.815Z,20.96
2019-02-22T03:15:29.118Z,20.79
2019-02-22T03:16:28.823Z,20.89
2019-02-22T03:17:28.830Z,20.87
2019-02-22T03:18:28.843Z,20.95
2019-02-22T03:19:28.836Z,20.93
2019-02-22T03:20:28.858Z,20.91
2019-02-22T03:21:28.844Z,20.87
2019-02-22T03:22:28.850Z,20.83
2019-02-22T03:23:28.856Z,20.93
2019-02-22T03:24:28.859Z,20.89
2019-02-22T03:25:28.863Z,20.87
2019-02-22T03:26:28.869Z,20.89
2019-02-22T03:27:28.880Z,20.89
2019-02-22T03:28:28.880Z,20.98
2019-02-22T03:29:28.886Z,20.95
2019-02-22T03:30:28.889Z,20.90
2019-02-22T03:31:28.896Z,20.89
2019-02-22T03:32:28.901Z,20.89
2019-02-22T03:33:29.011Z,20.87
2019-02-22T03:34:28.908Z,20.91
2019-02-22T03:35:28.913Z,20.89
2019-02-22T03:36:28.975Z,20.77
2019-02-22T03:37:28.922Z,20.81
2019-02-22T03:38:28.929Z,20.91
2019-02-22T03:39:28.932Z,20.86
2019-02-22T03:40:28.936Z,20.87
2019-02-22T03:41:32.795Z,20.89
2019-02-22T03:42:28.946Z,20.84
2019-02-22T03:43:28.976Z,20.91
2019-02-22T03:44:28.959Z,20.87
2019-02-22T03:45:28.961Z,20.79
2019-02-22T03:46:28.966Z,20.83
2019-02-22T03:47:28.970Z,20.90
2019-02-22T03:48:28.978Z,20.91
2019-02-22T03:49:28.990Z,20.87
2019-02-22T03:50:28.986Z,20.77
2019-02-22T03:51:28.991Z,20.80
2019-02-22T03:52:29.000Z,20.80
2019-02-22T03:53:29.004Z,20.79
2019-02-22T03:54:29.007Z,20.89
2019-02-22T03:55:29.009Z,20.79
2019-02-22T03:56:29.018Z,20.87
2019-02-22T03:57:29.056Z,20.81
2019-02-22T03:58:29.023Z,20.77
2019-02-22T03:59:29.030Z,20.84
2019-02-22T04:00:29.039Z,20.87
2019-02-22T04:01:29.048Z,20.83
2019-02-22T04:02:29.043Z,20.84
2019-02-22T04:03:29.048Z,20.83
2019-02-22T04:04:29.053Z,20.81
2019-02-22T04:05:29.060Z,20.91
2019-02-22T04:06:29.063Z,20.84
2019-02-22T04:07:29.074Z,20.83
2019-02-22T04:08:29.076Z,20.87
2019-02-22T04:09:29.081Z,20.81
2019-02-22T04:10:29.081Z,20.81
2019-02-22T04:11:29.085Z,20.79
2019-02-22T04:12:29.092Z,20.86
2019-02-22T04:13:29.096Z,20.80
2019-02-22T04:14:29.101Z,20.80
2019-02-22T04:15:29.107Z,20.87
2019-02-22T04:16:29.112Z,20.83
2019-02-22T04:17:29.119Z,20.81
2019-02-22T04:18:29.120Z,20.87
2019-02-22T04:19:29.127Z,20.90
2019-02-22T04:20:29.130Z,20.87
2019-02-22T04:21:29.134Z,20.81
2019-02-22T04:22:29.139Z,20.80
2019-02-22T04:23:29.144Z,20.80
2019-02-22T04:24:29.149Z,20.80
2019-02-22T04:25:29.154Z,20.87
2019-02-22T04:26:29.160Z,20.84
2019-02-22T04:27:29.163Z,20.89
2019-02-22T04:28:29.168Z,20.90
2019-02-22T04:29:29.172Z,20.84
2019-02-22T04:30:29.177Z,20.84
2019-02-22T04:31:29.190Z,20.83
2019-02-22T04:32:29.189Z,20.87
2019-02-22T04:33:29.191Z,20.90
2019-02-22T04:34:29.202Z,20.93
2019-02-22T04:35:29.203Z,20.89
2019-02-22T04:36:29.209Z,20.89
2019-02-22T04:37:29.211Z,20.87
2019-02-22T04:38:29.216Z,20.90
2019-02-22T04:39:29.219Z,20.90
2019-02-22T04:40:29.227Z,20.79
2019-02-22T04:41:29.230Z,20.77
2019-02-22T04:42:29.235Z,20.79
2019-02-22T04:43:29.239Z,20.77
2019-02-22T04:44:29.246Z,20.79
2019-02-22T04:45:29.501Z,20.84
2019-02-22T04:46:29.254Z,20.84
2019-02-22T04:47:29.259Z,20.83
2019-02-22T04:48:29.265Z,20.86
2019-02-22T04:49:29.268Z,20.80
2019-02-22T04:50:29.272Z,20.80
2019-02-22T04:51:29.278Z,20.89
2019-02-22T04:52:29.282Z,20.79
2019-02-22T04:53:29.293Z,20.77
2019-02-22T04:54:29.294Z,20.89
2019-02-22T04:55:29.498Z,20.79
2019-02-22T04:56:29.305Z,20.81
2019-02-22T04:57:29.307Z,20.89
2019-02-22T04:58:29.312Z,20.80
2019-02-22T04:59:29.317Z,20.77
2019-02-22T05:00:29.324Z,20.83
2019-02-22T05:01:29.327Z,20.71
2019-02-22T05:02:29.334Z,20.72
2019-02-22T05:03:29.336Z,20.87
2019-02-22T05:04:29.341Z,20.83
2019-02-22T05:05:29.345Z,20.76
2019-02-22T05:06:29.351Z,20.84
2019-02-22T05:07:29.358Z,20.86
2019-02-22T05:08:29.362Z,20.80
2019-02-22T05:09:29.378Z,20.80
2019-02-22T05:10:29.369Z,20.83
2019-02-22T05:11:29.378Z,20.80
2019-02-22T05:12:29.381Z,20.90
2019-02-22T05:13:29.384Z,20.80
2019-02-22T05:14:29.427Z,20.80
2019-02-22T05:15:29.400Z,20.80
2019-02-22T05:16:29.399Z,20.80
2019-02-22T05:17:29.403Z,20.80
2019-02-22T05:18:29.409Z,20.81
2019-02-22T05:19:29.425Z,20.77
2019-02-22T05:20:29.418Z,20.90
2019-02-22T05:21:29.420Z,20.77
2019-02-22T05:22:29.427Z,20.80
2019-02-22T05:23:29.434Z,20.80
2019-02-22T05:24:29.438Z,20.84
2019-02-22T05:25:29.442Z,20.81
2019-02-22T05:26:29.447Z,20.79
2019-02-22T05:27:29.451Z,20.76
2019-02-22T05:28:29.457Z,20.80
2019-02-22T05:29:29.502Z,20.87
2019-02-22T05:30:29.463Z,20.79
2019-02-22T05:31:29.478Z,20.84
2019-02-22T05:32:29.476Z,20.86
2019-02-22T05:33:29.478Z,20.81
2019-02-22T05:34:29.483Z,20.81
2019-02-22T05:35:29.490Z,20.81
2019-02-22T05:36:29.493Z,20.86
2019-02-22T05:37:29.503Z,20.84
2019-02-22T05:38:29.505Z,20.87
2019-02-22T05:39:29.510Z,20.90
2019-02-22T05:40:29.513Z,20.93
2019-02-22T05:41:29.517Z,20.83
2019-02-22T05:42:29.521Z,20.89
2019-02-22T05:43:29.526Z,20.81
2019-02-22T05:44:29.533Z,20.79
2019-02-22T05:45:29.536Z,20.90
2019-02-22T05:46:29.541Z,20.89
2019-02-22T05:47:29.547Z,20.91
2019-02-22T05:48:29.553Z,20.84
2019-02-22T05:49:29.556Z,20.84
2019-02-22T05:50:29.573Z,20.87
2019-02-22T05:51:29.567Z,20.84
2019-02-22T05:52:29.571Z,20.80
2019-02-22T05:53:29.575Z,20.83
2019-02-22T05:54:29.579Z,20.83
2019-02-22T05:55:29.584Z,20.83
2019-02-22T05:56:29.591Z,20.81
2019-02-22T05:57:29.594Z,20.81
2019-02-22T05:58:29.599Z,20.79
2019-02-22T05:59:29.603Z,20.89
2019-02-22T06:00:29.608Z,20.81
2019-02-22T06:01:29.612Z,20.81
2019-02-22T06:02:29.619Z,20.80
2019-02-22T06:03:29.623Z,20.86
2019-02-22T06:04:29.632Z,20.77
2019-02-22T06:05:29.631Z,20.84
2019-02-22T06:06:29.637Z,20.87
2019-02-22T06:07:29.647Z,20.80
2019-02-22T06:08:29.649Z,20.89
2019-02-22T06:09:29.660Z,20.89
2019-02-22T06:10:29.656Z,20.91
2019-02-22T06:11:29.723Z,20.90
2019-02-22T06:12:34.581Z,20.90
2019-02-22T06:13:29.669Z,20.84
2019-02-22T06:14:29.676Z,20.80
2019-02-22T06:15:31.487Z,20.79
2019-02-22T06:16:29.691Z,20.86
2019-02-22T06:17:29.689Z,20.89
2019-02-22T06:18:29.694Z,20.87
2019-02-22T06:19:29.698Z,20.84
2019-02-22T06:20:29.713Z,20.80
2019-02-22T06:21:29.709Z,20.80
2019-02-22T06:22:30.125Z,20.87
2019-02-22T06:23:29.718Z,20.90
2019-02-22T06:24:29.724Z,20.95
2019-02-22T06:25:29.728Z,20.84
2019-02-22T06:26:30.455Z,20.80
2019-02-22T06:27:29.738Z,20.87
2019-02-22T06:28:29.740Z,20.77
2019-02-22T06:29:29.746Z,20.87
2019-02-22T06:30:29.751Z,20.96
2019-02-22T06:31:29.754Z,20.91
2019-02-22T06:32:29.761Z,20.98
2019-02-22T06:33:29.767Z,21.04
2019-02-22T06:34:29.769Z,21.02
2019-02-22T06:35:29.774Z,21.01
2019-02-22T06:36:29.781Z,21.05
2019-02-22T06:37:29.785Z,20.96
2019-02-22T06:38:29.801Z,21.04
2019-02-22T06:39:29.798Z,21.02
2019-02-22T06:40:29.799Z,20.81
2019-02-22T06:41:29.804Z,20.90
2019-02-22T06:42:29.808Z,20.91
2019-02-22T06:43:29.813Z,21.04
2019-02-22T06:44:29.818Z,20.91
2019-02-22T06:45:29.821Z,20.93
2019-02-22T06:46:29.826Z,21.01
2019-02-22T06:47:29.831Z,21.04
2019-02-22T06:48:29.837Z,20.89
2019-02-22T06:49:29.842Z,20.99
2019-02-22T06:50:33.656Z,21.01
2019-02-22T06:51:29.850Z,20.93
2019-02-22T06:52:29.923Z,21.02
2019-02-22T06:53:29.966Z,20.91
2019-02-22T06:54:29.864Z,21.02
2019-02-22T06:55:29.881Z,20.89
2019-02-22T06:56:29.901Z,20.89
2019-02-22T06:57:29.882Z,21.05
2019-02-22T06:58:29.885Z,20.87
2019-02-22T06:59:29.890Z,20.91
2019-02-22T07:00:29.977Z,21.04
2019-02-22T07:01:29.899Z,21.01
2019-02-22T07:02:29.904Z,20.95
2019-02-22T07:03:29.911Z,20.86
2019-02-22T07:04:29.915Z,20.90
2019-02-22T07:05:29.918Z,20.91
2019-02-22T07:06:29.925Z,20.98
2019-02-22T07:07:29.927Z,20.86
2019-02-22T07:08:29.933Z,20.91
2019-02-22T07:09:29.940Z,20.89
2019-02-22T07:10:29.945Z,20.95
2019-02-22T07:11:29.949Z,21.01
2019-02-22T07:12:29.952Z,20.91
2019-02-22T07:13:29.955Z,20.93
2019-02-22T07:14:29.963Z,20.93
2019-02-22T07:15:29.965Z,21.01
2019-02-22T07:16:29.969Z,21.02
2019-02-22T07:17:29.975Z,20.90
2019-02-22T07:18:29.980Z,20.87
2019-02-22T07:19:29.986Z,20.99
2019-02-22T07:20:29.992Z,20.86
2019-02-22T07:21:40.366Z,20.95
2019-02-22T07:22:29.998Z,20.99
2019-02-22T07:23:30.003Z,20.91
2019-02-22T07:24:30.009Z,20.81
2019-02-22T07:25:30.013Z,20.81
2019-02-22T07:26:30.019Z,20.93
2019-02-22T07:27:30.031Z,20.91
2019-02-22T07:28:30.028Z,20.96
2019-02-22T07:29:30.036Z,20.93
2019-02-22T07:30:30.048Z,20.93
2019-02-22T07:31:30.043Z,20.96
2019-02-22T07:32:30.052Z,20.99
2019-02-22T07:33:30.053Z,20.96
2019-02-22T07:34:30.057Z,21.02
2019-02-22T07:35:30.066Z,21.02
2019-02-22T07:36:30.071Z,21.04
2019-02-22T07:37:30.075Z,21.02
2019-02-22T07:38:30.084Z,20.93
2019-02-22T07:39:30.081Z,20.91
2019-02-22T07:40:30.085Z,21.02
2019-02-22T07:41:30.090Z,20.96
2019-02-22T07:42:30.095Z,20.99
2019-02-22T07:43:30.101Z,21.01
2019-02-22T07:44:30.110Z,21.02
2019-02-22T07:45:30.192Z,21.02
2019-02-22T07:46:30.114Z,20.91
2019-02-22T07:47:30.120Z,20.98
2019-02-22T07:48:30.196Z,21.05
2019-02-22T07:49:30.129Z,20.98
2019-02-22T07:50:30.133Z,20.87
2019-02-22T07:51:30.138Z,20.96
2019-02-22T07:52:30.144Z,21.01
2019-02-22T07:53:30.148Z,21.01
2019-02-22T07:54:30.153Z,21.05
2019-02-22T07:55:30.157Z,20.96
2019-02-22T07:56:30.202Z,20.98
2019-02-22T07:57:30.165Z,20.96
2019-02-22T07:58:30.171Z,21.04
2019-02-22T07:59:30.176Z,21.02
2019-02-22T08:00:30.183Z,20.99
2019-02-22T08:01:30.186Z,20.99
2019-02-22T08:02:30.190Z,20.99
2019-02-22T08:03:30.208Z,21.05
2019-02-22T08:04:30.201Z,21.01
2019-02-22T08:05:30.207Z,20.95
2019-02-22T08:06:30.209Z,20.99
2019-02-22T08:07:30.217Z,20.99
2019-02-22T08:08:30.221Z,20.96
2019-02-22T08:09:30.224Z,21.09
2019-02-22T08:10:30.228Z,21.01
2019-02-22T08:11:30.235Z,21.04
2019-02-22T08:12:30.240Z,21.06
2019-02-22T08:13:30.247Z,20.98
2019-02-22T08:14:30.247Z,21.02
2019-02-22T08:15:30.256Z,20.99
2019-02-22T08:16:30.259Z,21.05
2019-02-22T08:17:30.261Z,21.05
2019-02-22T08:18:30.267Z,21.08
2019-02-22T08:19:30.273Z,21.02
2019-02-22T08:20:30.278Z,21.06
2019-02-22T08:21:30.282Z,21.09
2019-02-22T08:22:30.287Z,21.05
2019-02-22T08:23:30.293Z,21.05
2019-02-22T08:24:30.302Z,21.09
2019-02-22T08:25:30.302Z,21.05
2019-02-22T08:26:30.307Z,21.20
2019-02-22T08:27:30.311Z,20.96
2019-02-22T08:28:30.431Z,21.01
2019-02-22T08:29:30.322Z,21.01
2019-02-22T08:30:30.327Z,21.02
2019-02-22T08:31:30.331Z,21.05
2019-02-22T08:32:30.336Z,21.05
2019-02-22T08:33:30.342Z,21.09
2019-02-22T08:34:30.345Z,21.09
2019-02-22T08:35:30.349Z,21.14
2019-02-22T08:36:30.356Z,21.09
2019-02-22T08:37:30.360Z,21.11
2019-02-22T08:38:30.365Z,21.19
2019-02-22T08:39:30.370Z,21.23
2019-02-22T08:40:30.374Z,21.13
2019-02-22T08:41:30.379Z,21.16
2019-02-22T08:42:30.384Z,21.16
2019-02-22T08:43:31.779Z,21.23
2019-02-22T08:44:30.396Z,21.17
2019-02-22T08:45:30.399Z,21.13
2019-02-22T08:46:30.405Z,21.23
2019-02-22T08:47:30.409Z,21.20
2019-02-22T08:48:30.468Z,21.17
2019-02-22T08:49:30.427Z,21.17
2019-02-22T08:50:30.491Z,21.17
2019-02-22T08:51:30.433Z,21.23
2019-02-22T08:52:30.433Z,21.24
2019-02-22T08:53:30.437Z,21.20
2019-02-22T08:54:30.446Z,21.27
2019-02-22T08:55:30.448Z,21.20
2019-02-22T08:56:30.451Z,21.26
2019-02-22T08:57:30.457Z,21.21
2019-02-22T08:58:30.466Z,21.20
2019-02-22T08:59:30.520Z,21.27
2019-02-22T09:00:30.472Z,21.23
2019-02-22T09:01:30.475Z,21.24
2019-02-22T09:02:30.503Z,21.23
2019-02-22T09:03:30.489Z,21.27
2019-02-22T09:04:30.491Z,21.20
2019-02-22T09:05:30.495Z,21.24
2019-02-22T09:06:30.502Z,21.16
2019-02-22T09:07:30.506Z,21.30
2019-02-22T09:08:30.512Z,21.32
2019-02-22T09:09:30.514Z,21.27
2019-02-22T09:10:30.521Z,21.30
2019-02-22T09:11:30.525Z,21.36
2019-02-22T09:12:30.533Z,21.34
2019-02-22T09:13:30.539Z,21.32
2019-02-22T09:14:30.540Z,21.19
2019-02-22T09:15:30.551Z,21.23
2019-02-22T09:16:30.599Z,21.24
2019-02-22T09:17:30.555Z,21.24
2019-02-22T09:18:30.560Z,21.23
2019-02-22T09:19:30.570Z,21.24
2019-02-22T09:20:30.573Z,21.39
2019-02-22T09:21:30.575Z,21.39
2019-02-22T09:22:30.580Z,21.39
2019-02-22T09:23:30.591Z,21.36
2019-02-22T09:24:30.592Z,21.36
2019-02-22T09:25:30.595Z,21.36
2019-02-22T09:26:30.599Z,21.45
2019-02-22T09:27:30.604Z,21.56
2019-02-22T09:28:30.610Z,21.54
2019-02-22T09:29:30.615Z,21.51
2019-02-22T09:30:30.622Z,21.50
2019-02-22T09:31:30.625Z,21.51
2019-02-22T09:32:30.631Z,21.59
2019-02-22T09:33:30.637Z,21.56
2019-02-22T09:34:30.640Z,21.51
2019-02-22T09:35:30.644Z,21.50
2019-02-22T09:36:30.651Z,21.57
2019-02-22T09:37:30.655Z,21.56
2019-02-22T09:38:30.660Z,21.56
2019-02-22T09:39:30.665Z,21.54
2019-02-22T09:40:30.671Z,21.54
2019-02-22T09:41:30.675Z,21.59
2019-02-22T09:42:30.680Z,21.59
2019-02-22T09:43:30.685Z,21.66
2019-02-22T09:44:30.690Z,21.60
2019-02-22T09:45:30.695Z,21.69
2019-02-22T09:46:30.700Z,21.67
2019-02-22T09:47:30.705Z,21.72
2019-02-22T09:48:30.711Z,21.79
2019-02-22T09:49:30.723Z,21.83
2019-02-22T09:50:30.721Z,21.81
2019-02-22T09:51:30.725Z,21.88
2019-02-22T09:52:30.734Z,21.92
2019-02-22T09:53:30.768Z,21.79
2019-02-22T09:54:30.742Z,21.94
2019-02-22T09:55:30.747Z,21.95
2019-02-22T09:56:30.753Z,21.97
2019-02-22T09:57:30.757Z,22.09
2019-02-22T09:58:30.762Z,22.06
2019-02-22T09:59:30.768Z,22.07
2019-02-22T10:00:30.776Z,22.13
2019-02-22T10:01:30.776Z,22.12
2019-02-22T10:02:30.784Z,22.12
2019-02-22T10:03:30.787Z,22.13
2019-02-22T10:04:30.794Z,22.12
2019-02-22T10:05:30.798Z,22.27
2019-02-22T10:06:30.803Z,22.29
2019-02-22T10:07:30.810Z,22.32
2019-02-22T10:08:30.814Z,22.41
2019-02-22T10:09:30.818Z,22.41
2019-02-22T10:10:30.825Z,22.60
2019-02-22T10:11:30.831Z,22.68
2019-02-22T10:12:30.842Z,22.72
2019-02-22T10:13:30.840Z,22.89
2019-02-22T10:14:30.852Z,22.90
2019-02-22T10:15:30.852Z,22.96
2019-02-22T10:16:30.859Z,23.07
2019-02-22T10:17:30.863Z,23.27
2019-02-22T10:18:30.868Z,23.27
2019-02-22T10:19:30.872Z,23.32
2019-02-22T10:20:30.879Z,23.45
2019-02-22T10:21:30.886Z,23.55
2019-02-22T10:22:30.891Z,23.68
2019-02-22T10:23:30.895Z,23.94
2019-02-22T10:24:30.901Z,24.16
2019-02-22T10:25:30.906Z,24.35
2019-02-22T10:26:30.912Z,24.53
2019-02-22T10:27:30.917Z,24.63
2019-02-22T10:28:30.922Z,24.75
2019-02-22T10:29:30.940Z,24.91
2019-02-22T10:30:30.966Z,24.95
2019-02-22T10:31:31.090Z,25.02
2019-02-22T10:32:30.946Z,25.13
2019-02-22T10:33:36.761Z,25.13
2019-02-22T10:34:30.959Z,25.30
2019-02-22T10:35:30.962Z,25.24
2019-02-22T10:36:30.969Z,25.25
2019-02-22T10:37:30.976Z,25.22
2019-02-22T10:38:34.951Z,25.05
2019-02-22T10:39:30.984Z,24.97
2019-02-22T10:40:30.994Z,24.80
2019-02-22T10:41:30.996Z,24.67
2019-02-22T10:42:31.227Z,24.71
2019-02-22T10:43:31.008Z,24.71
2019-02-22T10:44:31.014Z,24.64
2019-02-22T10:45:31.019Z,24.76
2019-02-22T10:46:31.024Z,25.01
2019-02-22T10:47:31.035Z,25.15
2019-02-22T10:48:31.039Z,25.12
2019-02-22T10:49:31.042Z,25.15
2019-02-22T10:50:31.048Z,25.10
2019-02-22T10:51:31.059Z,25.17
2019-02-22T10:52:31.062Z,25.22
2019-02-22T10:53:31.066Z,25.13
2019-02-22T10:54:31.082Z,24.98
2019-02-22T10:55:31.078Z,25.15
2019-02-22T10:56:31.086Z,25.31
2019-02-22T10:57:31.091Z,25.13
2019-02-22T10:58:31.095Z,25.12
2019-02-22T10:59:31.102Z,25.10
2019-02-22T11:00:31.109Z,25.30
2019-02-22T11:01:31.113Z,25.57
2019-02-22T11:02:31.383Z,25.69
2019-02-22T11:03:31.126Z,25.75
2019-02-22T11:04:31.132Z,26.28
2019-02-22T11:05:31.137Z,26.31
2019-02-22T11:06:31.144Z,26.96
2019-02-22T11:07:31.151Z,27.38
2019-02-22T11:08:31.157Z,27.92
2019-02-22T11:09:31.165Z,28.28
2019-02-22T11:10:31.168Z,28.73
2019-02-22T11:11:31.176Z,29.16
2019-02-22T11:12:31.180Z,29.43
2019-02-22T11:13:31.186Z,29.75
2019-02-22T11:14:31.192Z,30.31
2019-02-22T11:15:31.201Z,30.74
2019-02-22T11:16:31.206Z,31.01
2019-02-22T11:17:31.211Z,31.45
2019-02-22T11:18:31.218Z,32.05
2019-02-22T11:19:31.224Z,31.99
2019-02-22T11:20:31.230Z,32.37
2019-02-22T11:21:31.236Z,32.86
2019-02-22T11:22:31.242Z,33.36
2019-02-22T11:23:31.252Z,34.01
2019-02-22T11:24:31.255Z,34.53
2019-02-22T11:25:31.261Z,34.80
2019-02-22T11:26:31.267Z,34.99
2019-02-22T11:27:31.274Z,34.96
2019-02-22T11:28:31.309Z,34.51
2019-02-22T11:29:31.287Z,33.15
2019-02-22T11:30:31.295Z,31.84
2019-02-22T11:31:31.312Z,31.11
2019-02-22T11:32:31.307Z,30.23
2019-02-22T11:33:31.312Z,29.84
2019-02-22T11:34:31.318Z,29.63
2019-02-22T11:35:31.331Z,29.34
2019-02-22T11:36:31.339Z,29.92
2019-02-22T11:37:31.341Z,31.39
2019-02-22T11:38:31.346Z,32.95
2019-02-22T11:39:31.355Z,33.90
2019-02-22T11:40:33.569Z,34.16
2019-02-22T11:41:31.370Z,34.38
2019-02-22T11:42:31.377Z,34.29
2019-02-22T11:43:31.385Z,34.16
2019-02-22T11:44:39.855Z,33.80
2019-02-22T11:45:31.400Z,33.17
2019-02-22T11:46:31.408Z,32.69
2019-02-22T11:47:31.417Z,32.33
2019-02-22T11:48:31.640Z,32.06
2019-02-22T11:49:31.434Z,32.10
2019-02-22T11:50:31.442Z,32.59
2019-02-22T11:51:31.452Z,32.74
2019-02-22T11:52:31.461Z,32.69
2019-02-22T11:53:31.468Z,32.42
2019-02-22T11:54:31.478Z,32.07
2019-02-22T11:55:31.488Z,32.11
2019-02-22T11:56:31.501Z,32.24
2019-02-22T11:57:31.506Z,32.06
2019-02-22T11:58:31.514Z,31.87
2019-02-22T11:59:31.524Z,31.99
2019-02-22T12:00:31.539Z,32.11
2019-02-22T12:01:31.543Z,31.93
2019-02-22T12:02:31.552Z,31.28
2019-02-22T12:03:31.566Z,30.43
2019-02-22T12:04:31.597Z,29.50
2019-02-22T12:05:31.582Z,28.80
2019-02-22T12:06:31.592Z,28.33
2019-02-22T12:07:31.603Z,27.95
2019-02-22T12:08:31.611Z,27.57
2019-02-22T12:09:31.620Z,27.26
2019-02-22T12:10:31.632Z,27.14
2019-02-22T12:11:31.640Z,26.94
2019-02-22T12:12:31.648Z,26.80
2019-02-22T12:13:32.290Z,26.79
2019-02-22T12:14:31.673Z,26.58
2019-02-22T12:15:31.698Z,26.49
2019-02-22T12:16:31.701Z,26.37
2019-02-22T12:17:31.693Z,26.24
2019-02-22T12:18:31.702Z,26.12
2019-02-22T12:19:31.711Z,26.15
2019-02-22T12:20:31.720Z,26.15
2019-02-22T12:21:31.729Z,26.04
2019-02-22T12:22:31.736Z,25.87
2019-02-22T12:23:31.747Z,25.80
2019-02-22T12:24:31.756Z,25.50
2019-02-22T12:25:31.764Z,25.54
2019-02-22T12:26:32.139Z,25.44
2019-02-22T12:27:31.782Z,25.42
2019-02-22T12:28:31.791Z,25.20
2019-02-22T12:29:31.798Z,25.19
2019-02-22T12:30:31.807Z,25.09
2019-02-22T12:31:31.814Z,25.15
2019-02-22T12:32:31.822Z,24.97
2019-02-22T12:33:31.830Z,24.88
2019-02-22T12:34:31.840Z,24.67
2019-02-22T12:35:31.847Z,24.71
2019-02-22T12:36:31.855Z,24.73
2019-02-22T12:37:31.863Z,24.69
2019-02-22T12:38:31.870Z,24.53
2019-02-22T12:39:31.879Z,24.52
2019-02-22T12:40:31.897Z,24.53
2019-02-22T12:41:31.894Z,24.37
2019-02-22T12:42:31.902Z,24.37
2019-02-22T12:43:31.909Z,24.31
2019-02-22T12:44:31.917Z,24.22
2019-02-22T12:45:31.925Z,24.26
2019-02-22T12:46:31.933Z,24.24
2019-02-22T12:47:31.942Z,24.12
2019-02-22T12:48:31.973Z,24.07
2019-02-22T12:49:31.958Z,24.13
2019-02-22T12:50:31.962Z,24.04
2019-02-22T12:51:31.973Z,24.01
2019-02-22T12:52:31.984Z,24.00